createdAt,value
2018-10-07T00:03:38.436Z,15.80
2018-10-07T00:07:42.169Z,15.70
2018-10-07T00:11:46.089Z,15.70
2018-10-07T00:15:49.828Z,15.70
2018-10-07T00:19:53.567Z,15.80
2018-10-07T00:23:57.280Z,15.70
2018-10-07T00:28:01.045Z,15.70
2018-10-07T00:32:09.947Z,15.70
2018-10-07T00:36:13.729Z,15.60
2018-10-07T00:40:17.464Z,15.60
2018-10-07T00:44:21.269Z,15.50
2018-10-07T00:48:25.131Z,15.60
2018-10-07T00:52:28.841Z,15.50
2018-10-07T00:56:32.629Z,15.50
2018-10-07T01:00:36.377Z,15.40
2018-10-07T01:04:40.082Z,15.50
2018-10-07T01:08:43.809Z,15.40
2018-10-07T01:12:47.534Z,15.40
2018-10-07T01:16:51.246Z,15.40
2018-10-07T01:20:55.143Z,15.40
2018-10-07T01:24:58.957Z,15.40
2018-10-07T01:29:02.687Z,15.40
2018-10-07T01:33:06.453Z,15.40
2018-10-07T01:37:10.228Z,15.30
2018-10-07T01:41:13.929Z,15.40
2018-10-07T01:45:17.898Z,15.30
2018-10-07T01:49:21.799Z,15.30
2018-10-07T01:53:25.530Z,15.30
2018-10-07T01:57:29.401Z,15.20
2018-10-07T02:01:33.083Z,15.20
2018-10-07T02:05:37.154Z,15.00
2018-10-07T02:09:41.033Z,15.00
2018-10-07T02:13:44.759Z,14.90
2018-10-07T02:17:48.485Z,14.80
2018-10-07T02:21:52.184Z,14.70
2018-10-07T02:25:55.988Z,14.60
2018-10-07T02:29:59.748Z,14.30
2018-10-07T02:34:03.502Z,14.10
2018-10-07T02:38:07.367Z,14.10
2018-10-07T02:42:11.116Z,13.90
2018-10-07T02:46:14.843Z,13.90
2018-10-07T02:50:21.164Z,13.70
2018-10-07T02:54:26.014Z,13.60
2018-10-07T02:58:30.196Z,13.40
2018-10-07T03:02:33.933Z,13.30
2018-10-07T03:06:37.654Z,13.30
2018-10-07T03:10:41.457Z,13.10
2018-10-07T03:14:45.157Z,13.00
2018-10-07T03:18:48.857Z,12.90
2018-10-07T03:22:52.719Z,12.80
2018-10-07T03:26:56.485Z,12.70
2018-10-07T03:31:00.248Z,12.60
2018-10-07T03:35:04.097Z,12.40
2018-10-07T03:39:08.274Z,12.30
2018-10-07T03:43:12.073Z,12.20
2018-10-07T03:47:15.781Z,12.10
2018-10-07T03:51:19.504Z,12.00
2018-10-07T03:55:23.267Z,11.90
2018-10-07T03:59:27.001Z,11.90
2018-10-07T04:03:30.760Z,11.80
2018-10-07T04:07:34.559Z,11.60
2018-10-07T04:11:38.482Z,11.60
2018-10-07T04:15:42.245Z,11.50
2018-10-07T04:19:45.981Z,11.50
2018-10-07T04:23:49.702Z,11.40
2018-10-07T04:27:53.413Z,11.40
2018-10-07T04:31:57.321Z,11.30
2018-10-07T04:36:01.101Z,11.30
2018-10-07T04:40:04.929Z,11.30
2018-10-07T04:44:08.766Z,11.20
2018-10-07T04:48:12.443Z,11.20
2018-10-07T04:52:16.145Z,11.20
2018-10-07T04:56:19.922Z,11.10
2018-10-07T05:00:23.684Z,11.10
2018-10-07T05:04:27.441Z,11.10
2018-10-07T05:08:31.226Z,11.10
2018-10-07T05:12:35.081Z,11.00
2018-10-07T05:16:54.000Z,11.00
2018-10-07T05:20:57.756Z,11.00
2018-10-07T05:25:01.565Z,10.90
2018-10-07T05:29:05.350Z,10.90
2018-10-07T05:33:09.086Z,10.80
2018-10-07T05:37:12.821Z,10.90
2018-10-07T05:41:16.522Z,10.80
2018-10-07T05:45:20.264Z,10.80
2018-10-07T05:49:23.934Z,10.70
2018-10-07T05:53:27.665Z,10.70
2018-10-07T05:57:31.479Z,10.70
2018-10-07T06:01:38.885Z,10.60
2018-10-07T06:05:42.694Z,10.70
2018-10-07T06:09:46.502Z,10.60
2018-10-07T06:13:50.189Z,10.60
2018-10-07T06:17:53.986Z,10.60
2018-10-07T06:21:57.732Z,10.60
2018-10-07T06:26:01.525Z,10.50
2018-10-07T06:30:05.884Z,10.50
2018-10-07T06:34:09.620Z,10.50
2018-10-07T06:38:14.242Z,10.50
2018-10-07T06:42:17.984Z,10.50
2018-10-07T06:46:21.702Z,10.50
2018-10-07T06:50:25.424Z,10.40
2018-10-07T06:54:29.234Z,10.40
2018-10-07T06:58:32.962Z,10.40
2018-10-07T07:02:36.936Z,10.40
2018-10-07T07:06:40.694Z,10.40
2018-10-07T07:10:44.521Z,10.30
2018-10-07T07:14:48.220Z,10.40
2018-10-07T07:18:51.990Z,10.30
2018-10-07T07:22:55.898Z,10.30
2018-10-07T07:26:59.634Z,10.30
2018-10-07T07:31:03.379Z,10.30
2018-10-07T07:35:07.130Z,10.30
2018-10-07T07:39:10.871Z,10.30
2018-10-07T07:43:14.614Z,10.40
2018-10-07T07:47:18.362Z,10.40
2018-10-07T07:51:22.096Z,10.40
2018-10-07T07:55:25.841Z,10.40
2018-10-07T07:59:29.564Z,10.40
2018-10-07T08:03:33.299Z,10.50
2018-10-07T08:07:37.031Z,10.50
2018-10-07T08:11:40.801Z,10.50
2018-10-07T08:15:44.499Z,10.60
2018-10-07T08:19:48.265Z,10.60
2018-10-07T08:23:52.010Z,10.60
2018-10-07T08:27:55.756Z,10.70
2018-10-07T08:31:59.515Z,10.70
2018-10-07T08:36:03.298Z,10.80
2018-10-07T08:40:07.092Z,10.80
2018-10-07T08:44:10.824Z,10.80
2018-10-07T08:48:14.611Z,10.90
2018-10-07T08:52:18.339Z,10.90
2018-10-07T08:56:22.080Z,10.90
2018-10-07T09:00:25.954Z,11.00
2018-10-07T09:04:29.672Z,11.00
2018-10-07T09:08:33.389Z,11.10
2018-10-07T09:12:37.204Z,11.10
2018-10-07T09:16:40.955Z,11.20
2018-10-07T09:20:44.802Z,11.20
2018-10-07T09:24:48.545Z,11.20
2018-10-07T09:28:52.373Z,11.30
2018-10-07T09:32:56.216Z,11.40
2018-10-07T09:36:59.885Z,11.40
2018-10-07T09:41:03.683Z,11.50
2018-10-07T09:45:07.839Z,11.60
2018-10-07T09:49:11.777Z,11.60
2018-10-07T09:53:15.508Z,11.70
2018-10-07T09:57:19.241Z,11.70
2018-10-07T10:01:23.054Z,11.70
2018-10-07T10:05:26.818Z,11.80
2018-10-07T10:09:30.653Z,11.90
2018-10-07T10:13:34.406Z,11.90
2018-10-07T10:17:38.339Z,11.90
2018-10-07T10:21:46.554Z,12.00
2018-10-07T10:25:58.517Z,12.00
2018-10-07T10:30:22.408Z,12.10
2018-10-07T10:34:28.206Z,12.20
2018-10-07T10:38:40.139Z,12.30
2018-10-07T10:42:47.354Z,12.30
2018-10-07T10:47:03.594Z,12.40
2018-10-07T10:52:18.011Z,12.40
2018-10-07T10:56:25.421Z,12.50
2018-10-07T11:00:55.463Z,12.50
2018-10-07T11:05:15.803Z,12.50
2018-10-07T11:09:30.810Z,12.60
2018-10-07T11:13:42.878Z,12.60
2018-10-07T11:20:03.599Z,12.60
2018-10-07T11:24:15.058Z,12.70
2018-10-07T11:28:47.629Z,12.80
2018-10-07T11:34:01.868Z,12.80
2018-10-07T11:38:39.980Z,12.90
2018-10-07T11:43:20.470Z,12.90
2018-10-07T11:47:58.392Z,13.00
2018-10-07T11:52:18.124Z,13.00
2018-10-07T11:56:21.861Z,13.10
2018-10-07T12:00:25.594Z,13.20
2018-10-07T12:04:29.367Z,13.30
2018-10-07T12:08:33.081Z,13.40
2018-10-07T12:12:36.790Z,13.50
2018-10-07T12:16:40.540Z,13.50
2018-10-07T12:20:44.288Z,13.70
2018-10-07T12:24:47.982Z,13.80
2018-10-07T12:28:51.657Z,14.00
2018-10-07T12:32:55.418Z,14.20
2018-10-07T12:36:59.203Z,14.40
2018-10-07T12:41:03.989Z,14.50
2018-10-07T12:45:08.851Z,14.60
2018-10-07T12:49:13.891Z,14.80
2018-10-07T12:53:17.829Z,14.90
2018-10-07T12:57:21.591Z,15.00
2018-10-07T13:01:25.313Z,15.20
2018-10-07T13:05:29.134Z,15.30
2018-10-07T13:09:32.924Z,15.40
2018-10-07T13:13:36.651Z,15.50
2018-10-07T13:17:40.358Z,15.60
2018-10-07T13:21:44.098Z,15.70
2018-10-07T13:25:47.768Z,15.80
2018-10-07T13:29:51.526Z,16.00
2018-10-07T13:33:55.381Z,16.10
2018-10-07T13:37:59.111Z,16.20
2018-10-07T13:42:02.837Z,16.20
2018-10-07T13:46:06.543Z,16.30
2018-10-07T13:50:10.289Z,16.40
2018-10-07T13:54:14.081Z,16.40
2018-10-07T13:58:17.838Z,16.40
2018-10-07T14:02:21.529Z,16.40
2018-10-07T14:06:25.268Z,16.40
2018-10-07T14:10:29.001Z,16.40
2018-10-07T14:14:32.817Z,16.40
2018-10-07T14:18:36.638Z,16.50
2018-10-07T14:22:40.446Z,16.50
2018-10-07T14:26:44.189Z,16.60
2018-10-07T14:30:47.997Z,16.60
2018-10-07T14:34:51.766Z,16.70
2018-10-07T14:38:55.552Z,16.70
2018-10-07T14:42:59.256Z,16.70
2018-10-07T14:47:02.982Z,16.60
2018-10-07T14:51:06.750Z,16.60
2018-10-07T14:55:10.507Z,16.60
2018-10-07T14:59:14.232Z,16.60
2018-10-07T15:03:17.965Z,16.60
2018-10-07T15:07:21.716Z,16.60
2018-10-07T15:11:25.464Z,16.60
2018-10-07T15:15:29.198Z,16.50
2018-10-07T15:19:32.905Z,16.40
2018-10-07T15:23:36.660Z,16.30
2018-10-07T15:27:40.404Z,16.30
2018-10-07T15:31:44.142Z,16.20
2018-10-07T15:35:47.933Z,16.20
2018-10-07T15:39:51.653Z,16.10
2018-10-07T15:43:55.390Z,16.10
2018-10-07T15:47:59.138Z,16.00
2018-10-07T15:52:02.885Z,15.90
2018-10-07T15:56:06.609Z,15.80
2018-10-07T16:00:10.338Z,15.80
2018-10-07T16:04:14.100Z,15.80
2018-10-07T16:08:17.795Z,15.70
2018-10-07T16:12:21.538Z,15.60
2018-10-07T16:16:25.250Z,15.60
2018-10-07T16:20:29.018Z,15.50
2018-10-07T16:24:32.700Z,15.40
2018-10-07T16:28:36.444Z,15.30
2018-10-07T16:32:40.165Z,15.20
2018-10-07T16:36:43.977Z,15.10
2018-10-07T16:40:47.713Z,15.00
2018-10-07T16:44:51.421Z,14.90
2018-10-07T16:48:55.177Z,14.80
2018-10-07T16:52:58.950Z,14.70
2018-10-07T16:57:02.682Z,14.50
2018-10-07T17:01:06.492Z,14.50
2018-10-07T17:05:10.214Z,14.30
2018-10-07T17:09:14.022Z,14.20
2018-10-07T17:13:17.770Z,14.10
2018-10-07T17:17:21.516Z,14.00
2018-10-07T17:21:25.268Z,13.90
2018-10-07T17:25:28.973Z,13.80
2018-10-07T17:29:32.749Z,13.60
2018-10-07T17:33:36.457Z,13.50
2018-10-07T17:37:40.256Z,13.40
2018-10-07T17:41:44.041Z,13.30
2018-10-07T17:45:47.787Z,13.10
2018-10-07T17:49:51.533Z,13.00
2018-10-07T17:53:55.249Z,12.90
2018-10-07T17:57:59.005Z,12.80
2018-10-07T18:02:02.798Z,12.70
2018-10-07T18:06:06.607Z,12.60
2018-10-07T18:10:10.395Z,12.50
2018-10-07T18:14:14.195Z,12.40
2018-10-07T18:18:17.908Z,12.30
2018-10-07T18:22:21.630Z,12.20
2018-10-07T18:26:25.367Z,12.10
2018-10-07T18:30:29.231Z,12.00
2018-10-07T18:34:33.035Z,11.80
2018-10-07T18:38:36.893Z,11.80
2018-10-07T18:42:40.607Z,11.70
2018-10-07T18:46:44.410Z,11.60
2018-10-07T18:50:48.209Z,11.50
2018-10-07T18:54:51.947Z,11.40
2018-10-07T18:58:55.707Z,11.30
2018-10-07T19:02:59.613Z,11.20
2018-10-07T19:07:03.217Z,11.10
2018-10-07T19:11:06.996Z,11.00
2018-10-07T19:15:10.706Z,10.90
2018-10-07T19:19:14.431Z,10.90
2018-10-07T19:23:18.191Z,10.70
2018-10-07T19:27:22.024Z,10.70
2018-10-07T19:31:25.753Z,10.60
2018-10-07T19:35:29.498Z,10.50
2018-10-07T19:39:33.236Z,10.40
2018-10-07T19:43:37.021Z,10.30
2018-10-07T19:47:40.753Z,10.20
2018-10-07T19:51:44.490Z,10.10
2018-10-07T19:55:48.223Z,10.00
2018-10-07T19:59:51.956Z,9.90
2018-10-07T20:03:55.670Z,9.80
2018-10-07T20:07:59.410Z,9.80
2018-10-07T20:12:03.103Z,9.70
2018-10-07T20:16:06.851Z,9.60
2018-10-07T20:20:10.634Z,9.60
2018-10-07T20:24:14.361Z,9.60
2018-10-07T20:28:18.045Z,9.50
2018-10-07T20:32:21.837Z,9.40
2018-10-07T20:36:25.602Z,9.40
2018-10-07T20:40:29.535Z,9.30
2018-10-07T20:44:33.162Z,9.30
2018-10-07T20:48:36.846Z,9.20
2018-10-07T20:52:40.586Z,9.10
2018-10-07T20:56:44.356Z,9.10
2018-10-07T21:00:48.086Z,9.00
2018-10-07T21:04:51.886Z,8.90
2018-10-07T21:08:55.675Z,8.90
2018-10-07T21:12:59.397Z,8.80
2018-10-07T21:17:03.228Z,8.70
2018-10-07T21:21:07.022Z,8.60
2018-10-07T21:25:10.747Z,8.60
2018-10-07T21:29:14.523Z,8.50
2018-10-07T21:33:18.306Z,8.50
2018-10-07T21:37:22.100Z,8.40
2018-10-07T21:41:25.832Z,8.30
2018-10-07T21:45:29.712Z,8.20
2018-10-07T21:49:33.424Z,8.20
2018-10-07T21:53:37.156Z,8.20
2018-10-07T21:57:40.872Z,8.10
2018-10-07T22:01:44.597Z,8.10
2018-10-07T22:05:48.320Z,8.00
2018-10-07T22:09:52.029Z,8.00
2018-10-07T22:13:55.743Z,8.00
2018-10-07T22:17:59.485Z,8.00
2018-10-07T22:22:03.208Z,7.90
2018-10-07T22:26:07.342Z,7.90
2018-10-07T22:30:11.085Z,7.80
2018-10-07T22:34:14.857Z,7.80
2018-10-07T22:38:18.703Z,7.80
2018-10-07T22:42:22.437Z,7.70
2018-10-07T22:46:26.162Z,7.70
2018-10-07T22:50:29.878Z,7.60
2018-10-07T22:54:33.659Z,7.60
2018-10-07T22:58:37.359Z,7.50
2018-10-07T23:02:41.074Z,7.50
2018-10-07T23:06:44.829Z,7.40
2018-10-07T23:10:48.787Z,7.40
2018-10-07T23:14:52.496Z,7.30
2018-10-07T23:18:56.229Z,7.30
2018-10-07T23:22:59.941Z,7.30
2018-10-07T23:27:03.670Z,7.20
2018-10-07T23:31:07.352Z,7.20
2018-10-07T23:35:11.091Z,7.20
2018-10-07T23:39:14.820Z,7.10
2018-10-07T23:43:18.560Z,7.10
2018-10-07T23:47:22.286Z,7.10
2018-10-07T23:51:25.987Z,7.00
2018-10-07T23:55:29.722Z,7.00
2018-10-07T23:59:33.441Z,7.00
